Terminal Aerodrome Forecast
Issued by NWS Buffalo, NY

Home | Current Version | Previous Version | Text Only | Print | Product List | Glossary On
Versions: 1 2 3 4 5 6 7 8 9 10 11 12 13 14 15 16 17 18 19 20 21 22 23 24 25 26 27 28
000
FTUS41 KBUF 261700
TAFROC
TAF
KROC 261731Z 2618/2718 07010KT 2SM -SN OVC020
     FM270800 04013KT 3SM -SN OVC025
     FM270900 03013KT P6SM OVC025
     FM271000 03013KT P6SM OVC025=

USA.gov is the U.S. government's official web portal to all federal, state and local government web resources and services.